Terminal Aerodrome Forecast
Issued by NWS Sioux Falls, SD

Home | Current Version | Previous Version | Text Only | Print | Product List | Glossary Off
Versions: 1 2 3 4 5 6 7 8 9 10 11 12 13 14 15 16 17 18 19 20 21 22

000
FTUS43 KFSD 211120
TAFSUX
TAF
KSUX 211120Z 2112/2212 10004KT P6SM SKC
     FM211600 14010KT P6SM SKC
     FM211900 15012G18KT P6SM SKC
     FM220100 13009KT P6SM SKC
     FM220900 13012KT P6SM BKN025=

USA.gov is the U.S. government's official web portal to all federal, state and local government web resources and services.